Terminal Aerodrome Forecast
Issued by NWS

Home | Current Version | Previous Version | Text Only | Print | Product List | Glossary On
Versions: 1 2 3 4 5 6 7 8 9 10 11 12 13 14 15 16 17 18
652
FTUS45 KABQ 012327
TAFSAF
TAF
KSAF 012327Z 0200/0224 14015G25KT P6SM VCSH BKN040 BKN070
     FM020300 13018G28KT P6SM VCSH BKN035 BKN070
     FM020600 14015KT P6SM OVC025
     FM020800 12007KT 6SM BR OVC015
      TEMPO 0208/0212 3SM BR
     FM021600 17008KT P6SM BKN035 BKN070=

USA.gov is the U.S. government's official web portal to all federal, state and local government web resources and services.